Time;durP1;ratioP1;P1;durP2;ratioP2;P2;SDS_P1;SDS_P2;PMS_P1;PMS_P2;Temp;Humidity;BMP_temperature;BMP_pressure;BME280_temperature;BME280_humidity;BME280_pressure;Samples;Min_cycle;Max_cycle;Signal;HPM_P1;HPM_P2
2023/07/09 00:01:23;;;;;;;9.40;7.28;;;22.30;99.90;;;;;;7380802;19;20018;-65
2023/07/09 00:03:51;;;;;;;9.13;7.25;;;22.30;99.90;;;;;;7384555;19;20505;-65
2023/07/09 00:06:18;;;;;;;10.20;7.95;;;22.30;99.90;;;;;;7376782;19;20051;-65
2023/07/09 00:08:47;;;;;;;12.40;7.93;;;22.20;99.90;;;;;;7383491;19;20014;-66
2023/07/09 00:11:15;;;;;;;11.85;8.00;;;22.20;99.90;;;;;;7379719;19;20074;-65
2023/07/09 00:13:41;;;;;;;10.88;8.18;;;22.10;99.90;;;;;;7380486;19;20015;-65
2023/07/09 00:16:14;;;;;;;10.90;7.70;;;22.10;99.90;;;;;;7379126;19;20074;-65
2023/07/09 00:18:41;;;;;;;10.30;7.57;;;22.00;99.90;;;;;;7383182;19;20015;-65
2023/07/09 00:21:07;;;;;;;9.65;7.97;;;22.00;99.90;;;;;;7381636;19;20022;-66
2023/07/09 00:23:33;;;;;;;10.32;7.57;;;22.00;99.90;;;;;;7383969;19;20039;-65
2023/07/09 00:26:03;;;;;;;9.85;7.43;;;21.90;99.90;;;;;;7379328;19;20022;-66
2023/07/09 00:28:31;;;;;;;9.52;7.15;;;21.90;99.90;;;;;;7378041;19;20023;-65
2023/07/09 00:30:58;;;;;;;9.73;8.27;;;21.80;99.90;;;;;;7380858;19;20508;-65
2023/07/09 00:33:31;;;;;;;10.30;8.15;;;21.70;99.90;;;;;;7380986;19;20061;-65
2023/07/09 00:35:58;;;;;;;8.80;7.72;;;21.70;99.90;;;;;;7380242;19;20072;-65
2023/07/09 00:38:26;;;;;;;12.10;7.90;;;21.60;99.90;;;;;;7377682;19;20117;-62
2023/07/09 00:41:18;;;;;;;8.80;7.90;;;21.60;99.90;;;;;;7378139;19;20508;-62
2023/07/09 00:43:46;;;;;;;10.52;8.38;;;21.50;99.90;;;;;;7380064;19;20018;-66
2023/07/09 00:46:18;;;;;;;11.77;7.53;;;21.40;99.90;;;;;;7383657;19;20014;-66
2023/07/09 00:48:49;;;;;;;11.20;7.60;;;21.40;99.90;;;;;;7371298;19;20484;-66
2023/07/09 00:51:20;;;;;;;12.13;8.23;;;21.40;99.90;;;;;;7381409;19;20031;-66
2023/07/09 00:53:51;;;;;;;9.45;7.72;;;21.40;99.90;;;;;;7380298;19;20024;-67
2023/07/09 00:56:34;;;;;;;9.32;8.05;;;21.30;99.90;;;;;;7381110;19;20018;-66
2023/07/09 00:59:05;;;;;;;10.10;7.90;;;21.30;99.90;;;;;;7380152;19;20018;-66
2023/07/09 01:01:33;;;;;;;;;;;21.30;99.90;;;;;;7374353;19;20616;-63
2023/07/09 01:04:03;;;;;;;10.63;7.85;;;21.30;99.90;;;;;;7381874;19;19918;-62
2023/07/09 01:06:39;;;;;;;9.40;7.95;;;21.30;99.90;;;;;;7378272;19;20014;-64
2023/07/09 01:09:07;;;;;;;8.50;7.60;;;21.20;99.90;;;;;;7377197;19;20046;-62
2023/07/09 01:11:34;;;;;;;9.27;7.40;;;21.20;99.90;;;;;;7381134;19;20489;-61
2023/07/09 01:14:03;;;;;;;11.27;7.78;;;21.20;99.90;;;;;;7376691;19;20048;-62
2023/07/09 01:16:43;;;;;;;10.55;8.25;;;21.20;99.90;;;;;;7380467;19;20368;-62
2023/07/09 01:19:09;;;;;;;9.23;7.30;;;21.20;99.90;;;;;;7376502;19;20010;-62
2023/07/09 01:21:36;;;;;;;9.85;7.68;;;21.20;99.90;;;;;;7380171;19;20019;-62
2023/07/09 01:24:35;;;;;;;9.63;7.72;;;21.30;99.90;;;;;;7377432;19;20492;-62
2023/07/09 01:27:03;;;;;;;9.70;7.85;;;21.30;99.90;;;;;;7379955;19;20015;-63
2023/07/09 01:29:35;;;;;;;9.15;7.65;;;21.30;99.90;;;;;;7376468;19;20394;-62
2023/07/09 01:32:03;;;;;;;10.35;7.72;;;21.30;99.90;;;;;;7379592;19;20010;-62
2023/07/09 01:34:30;;;;;;;15.98;7.50;;;21.20;99.90;;;;;;7374757;19;20027;-65
2023/07/09 01:36:56;;;;;;;10.02;7.32;;;21.30;99.90;;;;;;7378916;19;20047;-66
2023/07/09 01:39:23;;;;;;;9.65;7.70;;;21.30;99.90;;;;;;7377421;19;20032;-67
2023/07/09 01:41:49;;;;;;;9.45;7.05;;;21.30;99.90;;;;;;7377666;19;20018;-66
2023/07/09 01:44:15;;;;;;;8.45;7.53;;;21.20;99.90;;;;;;7381175;19;20034;-66
2023/07/09 01:46:42;;;;;;;9.00;7.25;;;21.30;99.90;;;;;;7378688;19;20026;-66
2023/07/09 01:49:08;;;;;;;9.73;7.53;;;21.20;99.90;;;;;;7378267;19;20018;-66
2023/07/09 01:51:36;;;;;;;9.55;7.82;;;21.20;99.90;;;;;;7378034;19;20018;-66
2023/07/09 01:54:02;;;;;;;11.90;8.88;;;21.20;99.90;;;;;;7376619;19;20392;-62
2023/07/09 01:56:29;;;;;;;11.63;7.25;;;21.20;99.90;;;;;;7378318;19;20034;-63
2023/07/09 01:59:01;;;;;;;9.77;7.55;;;21.20;99.90;;;;;;7375953;19;20041;-62
2023/07/09 02:01:29;;;;;;;11.43;7.90;;;21.20;99.90;;;;;;7377223;19;20018;-62
2023/07/09 02:04:00;;;;;;;10.52;7.80;;;21.20;99.90;;;;;;7379649;19;20025;-62
2023/07/09 02:06:31;;;;;;;9.90;7.60;;;21.20;99.90;;;;;;7378751;19;20299;-62
2023/07/09 02:08:58;;;;;;;8.98;7.75;;;21.20;99.90;;;;;;7379523;19;20042;-62
2023/07/09 02:11:25;;;;;;;10.00;7.88;;;21.20;99.90;;;;;;7377755;19;20640;-63
2023/07/09 02:13:51;;;;;;;11.00;7.85;;;21.10;99.90;;;;;;7376261;19;20022;-62
2023/07/09 02:16:17;;;;;;;10.35;7.97;;;21.10;99.90;;;;;;7378631;19;20117;-66
2023/07/09 02:18:44;;;;;;;12.43;8.45;;;21.10;99.90;;;;;;7375833;19;20579;-66
2023/07/09 02:21:10;;;;;;;9.25;7.43;;;21.00;99.90;;;;;;7378411;19;20033;-66
2023/07/09 02:23:36;;;;;;;10.73;7.97;;;21.00;99.90;;;;;;7377079;19;20014;-67
2023/07/09 02:26:03;;;;;;;11.25;8.25;;;21.00;99.90;;;;;;7378163;19;20441;-67
2023/07/09 02:28:30;;;;;;;9.40;7.03;;;20.90;99.90;;;;;;7373431;19;20022;-63
2023/07/09 02:30:57;;;;;;;12.65;8.40;;;20.80;99.90;;;;;;7375342;19;20026;-63
2023/07/09 02:33:23;;;;;;;13.10;8.68;;;20.80;99.90;;;;;;7374458;19;20035;-63
2023/07/09 02:35:49;;;;;;;10.40;7.88;;;20.70;99.90;;;;;;7378548;19;20015;-63
2023/07/09 02:38:36;;;;;;;10.48;8.52;;;20.60;99.90;;;;;;7375902;19;20502;-63
2023/07/09 02:41:02;;;;;;;12.25;8.45;;;20.40;99.90;;;;;;7376711;19;20074;-63
2023/07/09 02:43:28;;;;;;;11.15;9.00;;;20.30;99.90;;;;;;7369989;19;20022;-66
2023/07/09 02:45:58;;;;;;;9.77;8.48;;;20.30;99.90;;;;;;7374060;19;20050;-66
2023/07/09 02:48:25;;;;;;;11.43;8.80;;;20.20;99.90;;;;;;7374147;19;20022;-66
2023/07/09 02:50:51;;;;;;;11.48;9.13;;;20.20;99.90;;;;;;7376858;19;20387;-63
2023/07/09 02:53:18;;;;;;;12.57;8.65;;;20.10;99.90;;;;;;7372053;19;20069;-66
2023/07/09 02:55:44;;;;;;;11.65;8.82;;;20.10;99.90;;;;;;7376269;19;20481;-63
2023/07/09 02:58:10;;;;;;;9.77;8.63;;;20.00;99.90;;;;;;7370255;19;20086;-63
2023/07/09 03:00:37;;;;;;;11.40;8.27;;;20.00;99.90;;;;;;7373714;19;20019;-66
2023/07/09 03:03:03;;;;;;;10.90;7.97;;;20.00;99.90;;;;;;7371913;19;20037;-63
2023/07/09 03:05:30;;;;;;;9.63;7.80;;;19.90;99.90;;;;;;7375600;19;20035;-66
2023/07/09 03:07:56;;;;;;;12.52;8.77;;;19.90;99.90;;;;;;7375312;19;20026;-66
2023/07/09 03:10:28;;;;;;;11.63;9.60;;;19.90;99.90;;;;;;7374948;19;20030;-67
2023/07/09 03:12:57;;;;;;;9.95;8.52;;;19.90;99.90;;;;;;7370248;19;20018;-63
2023/07/09 03:15:23;;;;;;;8.57;7.53;;;19.90;99.90;;;;;;7374373;19;20014;-63
2023/07/09 03:17:49;;;;;;;10.35;9.15;;;19.80;99.90;;;;;;7375815;19;20656;-63
2023/07/09 03:20:16;;;;;;;11.75;9.00;;;19.80;99.90;;;;;;7372609;19;20397;-63
2023/07/09 03:22:42;;;;;;;10.77;8.80;;;19.80;99.90;;;;;;7375398;19;20018;-63
2023/07/09 03:25:08;;;;;;;10.00;8.70;;;19.70;99.90;;;;;;7374009;19;20019;-63
2023/07/09 03:27:35;;;;;;;11.80;9.25;;;19.70;99.90;;;;;;7375484;19;20746;-63
2023/07/09 03:30:01;;;;;;;9.98;8.93;;;19.70;99.90;;;;;;7374460;19;20022;-63
2023/07/09 03:32:27;;;;;;;9.88;8.45;;;19.70;99.90;;;;;;7380339;19;20070;-63
2023/07/09 03:34:54;;;;;;;11.40;8.85;;;19.70;99.90;;;;;;7382032;19;20426;-67
2023/07/09 03:37:20;;;;;;;10.20;8.70;;;19.70;99.90;;;;;;7381979;19;20082;-67
2023/07/09 03:39:46;;;;;;;10.25;8.35;;;19.70;99.90;;;;;;7381640;19;20114;-65
2023/07/09 03:42:12;;;;;;;12.63;9.50;;;19.70;99.90;;;;;;7378456;19;20015;-66
2023/07/09 03:44:40;;;;;;;12.55;9.50;;;19.70;99.90;;;;;;7380232;19;20883;-66
2023/07/09 03:47:06;;;;;;;10.35;8.57;;;19.70;99.90;;;;;;7378686;19;20030;-69
2023/07/09 03:49:33;;;;;;;14.63;9.82;;;19.60;99.90;;;;;;7375764;19;20026;-65
2023/07/09 03:52:00;;;;;;;11.85;8.93;;;19.70;99.90;;;;;;7379698;19;20018;-62
2023/07/09 03:54:26;;;;;;;13.18;9.35;;;19.70;99.90;;;;;;7375760;19;20023;-62
2023/07/09 03:56:52;;;;;;;16.27;9.85;;;19.70;99.90;;;;;;7381403;19;20041;-62
2023/07/09 03:59:19;;;;;;;15.63;9.30;;;19.80;99.90;;;;;;7379646;19;20017;-62
2023/07/09 04:01:45;;;;;;;14.27;9.35;;;19.80;99.90;;;;;;7380256;19;20390;-62
2023/07/09 04:04:15;;;;;;;12.70;9.07;;;19.90;99.90;;;;;;7382703;19;20453;-63
2023/07/09 04:06:43;;;;;;;14.73;10.25;;;19.90;99.90;;;;;;7369519;19;20386;-62
2023/07/09 04:09:09;;;;;;;14.20;9.40;;;19.90;99.90;;;;;;7372420;19;20026;-63
2023/07/09 04:11:35;;;;;;;14.18;10.18;;;20.00;99.90;;;;;;7379685;19;20094;-62
2023/07/09 04:14:02;;;;;;;12.23;10.07;;;20.10;99.90;;;;;;7379590;19;20453;-65
2023/07/09 04:16:28;;;;;;;12.00;8.90;;;20.10;99.90;;;;;;7379487;19;20019;-65
2023/07/09 04:18:54;;;;;;;11.57;9.43;;;20.10;99.90;;;;;;7378499;19;20526;-66
2023/07/09 04:21:20;;;;;;;12.05;9.07;;;20.20;99.90;;;;;;7379417;19;20089;-66
2023/07/09 04:23:47;;;;;;;11.18;9.68;;;20.30;99.90;;;;;;7380359;19;20548;-65
2023/07/09 04:26:14;;;;;;;13.10;9.63;;;20.40;99.90;;;;;;7378407;19;20078;-62
2023/07/09 04:28:40;;;;;;;12.35;9.95;;;20.30;99.90;;;;;;7376903;19;20038;-63
2023/07/09 04:31:06;;;;;;;12.70;9.65;;;20.50;99.90;;;;;;7377255;19;20023;-61
2023/07/09 04:33:35;;;;;;;15.00;10.00;;;20.50;99.90;;;;;;7377320;19;20521;-65
2023/07/09 04:36:02;;;;;;;14.10;9.85;;;20.50;99.90;;;;;;7378411;19;20037;-62
2023/07/09 04:38:28;;;;;;;13.60;9.20;;;20.60;99.90;;;;;;7381772;19;20034;-62
2023/07/09 04:40:58;;;;;;;17.70;9.90;;;20.60;99.90;;;;;;7378066;19;20493;-62
2023/07/09 04:43:24;;;;;;;14.20;9.93;;;20.80;99.90;;;;;;7376327;19;20514;-65
2023/07/09 04:45:50;;;;;;;13.50;10.07;;;20.90;99.90;;;;;;7381360;19;20128;-65
2023/07/09 04:48:17;;;;;;;10.98;9.07;;;20.90;99.90;;;;;;7381037;19;20518;-65
2023/07/09 04:50:43;;;;;;;10.93;9.68;;;20.90;99.90;;;;;;7381121;19;20027;-65
2023/07/09 04:53:09;;;;;;;11.55;9.98;;;21.00;99.90;;;;;;7375430;19;20014;-66
2023/07/09 04:55:35;;;;;;;13.23;9.73;;;21.10;99.90;;;;;;7380188;19;20030;-66
2023/07/09 04:58:03;;;;;;;15.48;10.38;;;21.20;99.90;;;;;;7377549;19;20019;-66
2023/07/09 05:00:32;;;;;;;12.05;9.43;;;21.20;99.90;;;;;;7382447;19;20362;-66
2023/07/09 05:02:58;;;;;;;15.38;9.80;;;21.30;99.90;;;;;;7378585;19;20367;-66
2023/07/09 05:05:27;;;;;;;11.73;10.32;;;21.50;99.90;;;;;;7378619;19;20492;-66
2023/07/09 05:07:54;;;;;;;13.60;10.00;;;21.60;99.90;;;;;;7378621;19;20014;-65
2023/07/09 05:10:21;;;;;;;13.00;9.32;;;21.70;99.90;;;;;;7380434;19;20014;-66
2023/07/09 05:12:53;;;;;;;13.73;9.55;;;21.80;99.90;;;;;;7379650;19;20082;-66
2023/07/09 05:15:21;;;;;;;12.10;8.75;;;22.10;99.90;;;;;;7380208;19;20025;-66
2023/07/09 05:17:50;;;;;;;11.23;8.50;;;22.50;99.90;;;;;;7377555;19;20037;-66
2023/07/09 05:20:17;;;;;;;12.90;9.73;;;22.70;99.90;;;;;;7378800;19;20478;-66
2023/07/09 05:22:43;;;;;;;12.70;9.30;;;22.80;99.90;;;;;;7381304;19;20027;-65
2023/07/09 05:25:09;;;;;;;15.98;9.57;;;22.90;99.90;;;;;;7380738;19;20050;-66
2023/07/09 05:27:36;;;;;;;14.82;9.52;;;22.90;99.90;;;;;;7380842;19;20122;-65
2023/07/09 05:30:02;;;;;;;12.48;9.05;;;22.90;99.90;;;;;;7376187;19;20037;-65
2023/07/09 05:32:29;;;;;;;14.57;9.98;;;22.90;99.90;;;;;;7375254;19;20019;-68
2023/07/09 05:34:56;;;;;;;13.40;11.23;;;23.00;99.90;;;;;;7381302;19;20018;-68
2023/07/09 05:37:22;;;;;;;12.50;10.45;;;23.10;99.90;;;;;;7381551;19;20371;-63
2023/07/09 05:39:48;;;;;;;28.58;24.83;;;23.10;99.90;;;;;;7378501;19;20082;-64
2023/07/09 05:42:15;;;;;;;58.30;52.22;;;23.10;99.90;;;;;;7391978;19;20010;-64
2023/07/09 05:44:41;;;;;;;16.25;14.13;;;23.00;99.90;;;;;;7393662;19;20011;-64
2023/07/09 05:47:08;;;;;;;31.92;27.58;;;23.00;99.90;;;;;;7391859;19;20632;-64
2023/07/09 05:49:34;;;;;;;17.77;12.48;;;22.90;99.90;;;;;;7390727;19;20022;-64
2023/07/09 05:52:00;;;;;;;16.55;12.57;;;22.90;99.90;;;;;;7391762;19;20034;-64
2023/07/09 05:54:26;;;;;;;25.10;22.42;;;23.00;99.90;;;;;;7386549;19;20021;-68
2023/07/09 05:56:53;;;;;;;16.75;13.05;;;23.10;99.90;;;;;;7390822;19;20019;-69
2023/07/09 05:59:19;;;;;;;14.80;11.55;;;23.10;99.90;;;;;;7389179;19;20025;-69
2023/07/09 06:01:45;;;;;;;15.27;13.55;;;23.10;99.90;;;;;;7389290;19;20086;-68
2023/07/09 06:04:13;;;;;;;18.63;15.93;;;23.10;99.90;;;;;;7391331;19;20019;-68
2023/07/09 06:06:41;;;;;;;14.55;13.02;;;23.00;99.90;;;;;;7391567;19;20481;-64
2023/07/09 06:09:08;;;;;;;15.25;12.10;;;23.10;99.90;;;;;;7394112;19;20376;-64
2023/07/09 06:11:35;;;;;;;15.65;12.77;;;23.30;99.90;;;;;;7387626;19;20090;-66
2023/07/09 06:14:02;;;;;;;133.57;119.65;;;23.40;99.90;;;;;;7383283;19;20723;-65
2023/07/09 06:16:29;;;;;;;37.10;33.30;;;23.50;99.90;;;;;;7396827;19;20010;-66
2023/07/09 06:18:56;;;;;;;20.35;18.25;;;23.70;99.90;;;;;;7390859;19;20042;-64
2023/07/09 06:21:22;;;;;;;30.33;27.25;;;23.80;99.90;;;;;;7389627;19;20014;-64
2023/07/09 06:23:48;;;;;;;25.20;20.33;;;24.00;99.90;;;;;;7387506;19;20525;-65
2023/07/09 06:26:14;;;;;;;14.00;12.23;;;24.30;99.90;;;;;;7387472;19;20035;-64
2023/07/09 06:28:41;;;;;;;17.48;12.95;;;24.50;99.90;;;;;;7385615;19;20110;-64
2023/07/09 06:31:07;;;;;;;19.20;16.02;;;24.70;99.90;;;;;;7384047;19;20100;-65
2023/07/09 06:33:33;;;;;;;19.15;16.08;;;25.00;99.90;;;;;;7384974;19;20022;-65
2023/07/09 06:36:01;;;;;;;13.90;11.95;;;25.20;99.90;;;;;;7387761;19;20014;-66
2023/07/09 06:38:29;;;;;;;15.52;12.68;;;25.30;99.90;;;;;;7396623;19;20011;-66
2023/07/09 06:40:57;;;;;;;21.25;18.70;;;25.50;99.90;;;;;;7394013;19;20037;-66
2023/07/09 06:43:25;;;;;;;83.57;75.65;;;25.70;99.90;;;;;;7386436;19;20058;-70
2023/07/09 06:45:54;;;;;;;15.68;13.60;;;25.90;99.90;;;;;;7396814;19;20021;-67
2023/07/09 06:48:22;;;;;;;30.80;27.73;;;26.10;99.90;;;;;;7396247;19;20414;-67
2023/07/09 06:50:48;;;;;;;17.77;14.57;;;26.30;99.90;;;;;;7393503;19;20007;-67
2023/07/09 06:53:15;;;;;;;13.35;10.23;;;26.30;99.90;;;;;;7396132;19;20010;-66
2023/07/09 06:55:55;;;;;;;14.95;13.45;;;26.30;99.90;;;;;;7396013;19;20023;-67
2023/07/09 06:58:27;;;;;;;16.88;13.85;;;26.20;99.90;;;;;;7397202;19;20010;-67
2023/07/09 07:01:04;;;;;;;44.85;40.35;;;26.30;99.90;;;;;;7394533;19;20018;-67
2023/07/09 07:03:32;;;;;;;12.82;10.88;;;26.60;99.90;;;;;;7395858;19;20006;-68
2023/07/09 07:05:58;;;;;;;12.50;10.50;;;26.90;99.90;;;;;;7395532;19;20484;-68
2023/07/09 07:08:26;;;;;;;14.25;12.18;;;27.20;99.90;;;;;;7402089;19;20011;-68
2023/07/09 07:11:02;;;;;;;18.23;16.40;;;27.30;99.90;;;;;;7403828;19;20014;-68
2023/07/09 07:13:39;;;;;;;13.18;11.73;;;27.60;99.90;;;;;;7400437;19;20078;-69
2023/07/09 07:16:08;;;;;;;23.85;21.40;;;27.90;99.90;;;;;;7401240;19;20020;-68
2023/07/09 07:18:35;;;;;;;14.38;12.38;;;27.90;99.90;;;;;;7397999;19;20033;-68
2023/07/09 07:21:02;;;;;;;13.45;11.30;;;28.10;99.90;;;;;;7394915;19;20030;-72
2023/07/09 07:23:28;;;;;;;15.52;13.65;;;28.20;99.90;;;;;;7400111;19;20019;-69
2023/07/09 07:25:55;;;;;;;11.52;9.98;;;28.30;99.90;;;;;;7399199;19;20030;-68
2023/07/09 07:28:22;;;;;;;14.63;12.43;;;28.30;99.90;;;;;;7396121;19;20018;-64
2023/07/09 07:31:02;;;;;;;11.15;9.95;;;28.60;99.90;;;;;;7398323;19;20011;-65
2023/07/09 07:33:28;;;;;;;14.10;10.07;;;28.80;99.90;;;;;;7394052;19;20018;-64
2023/07/09 07:35:55;;;;;;;31.80;28.55;;;29.10;99.90;;;;;;7393328;19;20019;-64
2023/07/09 07:38:22;;;;;;;10.65;8.95;;;29.30;99.90;;;;;;7393124;19;20473;-64
2023/07/09 07:40:48;;;;;;;11.27;10.10;;;29.20;99.90;;;;;;7396567;19;20032;-64
2023/07/09 07:43:15;;;;;;;10.77;8.70;;;29.30;99.90;;;;;;7390242;19;20018;-64
2023/07/09 07:45:42;;;;;;;21.45;17.35;;;29.80;99.90;;;;;;7393633;19;20607;-64
2023/07/09 07:48:08;;;;;;;16.55;10.48;;;29.90;99.90;;;;;;7398247;19;20482;-67
2023/07/09 07:50:35;;;;;;;18.88;16.92;;;30.00;99.90;;;;;;7396763;19;20031;-65
2023/07/09 07:53:02;;;;;;;50.17;45.35;;;30.10;99.90;;;;;;7387478;19;20027;-64
2023/07/09 07:55:28;;;;;;;19.55;15.75;;;30.40;99.90;;;;;;7396638;19;20533;-68
2023/07/09 07:57:56;;;;;;;13.20;11.80;;;30.50;99.10;;;;;;7391927;19;20041;-69
2023/07/09 08:00:24;;;;;;;15.57;13.82;;;30.60;97.80;;;;;;7394557;19;20018;-68
2023/07/09 08:02:51;;;;;;;50.03;45.55;;;30.60;97.20;;;;;;7389234;19;20427;-68
2023/07/09 08:05:17;;;;;;;13.63;12.23;;;30.70;97.60;;;;;;7391362;19;20011;-64
2023/07/09 08:07:44;;;;;;;10.95;8.77;;;31.00;96.50;;;;;;7394131;19;20026;-63
2023/07/09 08:10:11;;;;;;;10.27;7.90;;;31.10;96.40;;;;;;7393488;19;20011;-63
2023/07/09 08:12:39;;;;;;;12.50;11.05;;;31.30;96.40;;;;;;7389687;19;20014;-63
2023/07/09 08:15:06;;;;;;;24.83;22.42;;;31.50;95.90;;;;;;7392270;19;20039;-64
2023/07/09 08:17:32;;;;;;;23.13;20.83;;;31.50;95.50;;;;;;7386781;19;20497;-64
2023/07/09 08:20:02;;;;;;;17.63;15.70;;;31.30;95.00;;;;;;7391878;19;20018;-64
2023/07/09 08:22:28;;;;;;;21.83;19.77;;;31.50;94.90;;;;;;7388773;19;20387;-64
2023/07/09 08:24:57;;;;;;;14.55;11.00;;;31.60;94.70;;;;;;7390084;19;20114;-64
2023/07/09 08:27:23;;;;;;;12.05;9.45;;;31.60;93.50;;;;;;7389346;19;20046;-64
2023/07/09 08:29:50;;;;;;;10.70;9.00;;;31.50;93.60;;;;;;7392123;19;20038;-64
2023/07/09 08:32:19;;;;;;;10.13;7.47;;;31.30;94.60;;;;;;7387412;19;20475;-65
2023/07/09 08:34:45;;;;;;;9.38;8.07;;;31.60;94.20;;;;;;7387271;19;20026;-64
2023/07/09 08:37:11;;;;;;;11.02;7.53;;;31.90;92.90;;;;;;7381547;19;20082;-63
2023/07/09 08:39:38;;;;;;;10.25;7.22;;;32.10;92.00;;;;;;7377050;19;20098;-63
2023/07/09 08:42:13;;;;;;;11.55;7.68;;;32.30;91.10;;;;;;7381946;19;20021;-62
2023/07/09 08:44:52;;;;;;;9.13;7.22;;;32.20;90.20;;;;;;7380971;19;20018;-62
2023/07/09 08:47:27;;;;;;;10.13;8.15;;;32.60;90.90;;;;;;7382050;19;20035;-68
2023/07/09 08:49:59;;;;;;;11.52;8.88;;;32.60;91.30;;;;;;7375197;19;20028;-67
2023/07/09 08:52:25;;;;;;;11.95;7.60;;;32.60;90.90;;;;;;7376253;19;20041;-62
2023/07/09 08:54:53;;;;;;;7.97;7.03;;;32.80;91.30;;;;;;7370678;19;20056;-62
2023/07/09 08:57:24;;;;;;;9.85;6.97;;;33.10;91.10;;;;;;7375235;19;20352;-62
2023/07/09 09:00:02;;;;;;;8.98;6.72;;;33.30;88.60;;;;;;7375878;19;20857;-62
2023/07/09 09:02:39;;;;;;;10.77;6.93;;;33.30;86.00;;;;;;7375327;19;20091;-63
2023/07/09 09:05:05;;;;;;;9.50;6.85;;;33.50;88.10;;;;;;7372622;19;20023;-63
2023/07/09 09:07:41;;;;;;;9.80;8.63;;;33.60;87.70;;;;;;7378386;19;20480;-67
2023/07/09 09:10:18;;;;;;;8.68;6.60;;;33.50;83.10;;;;;;7378069;19;20581;-67
2023/07/09 09:13:00;;;;;;;7.90;6.78;;;33.70;81.60;;;;;;7376043;19;20018;-62
2023/07/09 09:15:27;;;;;;;10.38;7.25;;;33.80;81.60;;;;;;7378693;19;20413;-63
2023/07/09 09:18:04;;;;;;;9.63;6.82;;;33.80;81.60;;;;;;7375244;19;20490;-63
2023/07/09 09:20:34;;;;;;;10.07;6.88;;;34.20;80.80;;;;;;7376361;19;20101;-67
2023/07/09 09:23:06;;;;;;;9.47;6.63;;;34.30;80.90;;;;;;7375964;19;20121;-67
2023/07/09 09:25:35;;;;;;;9.82;6.82;;;34.40;80.60;;;;;;7379197;19;20960;-68
2023/07/09 09:28:02;;;;;;;11.10;9.85;;;34.70;78.50;;;;;;7379333;19;20023;-63
2023/07/09 09:30:30;;;;;;;9.07;6.85;;;34.90;77.70;;;;;;7379544;19;20019;-61
2023/07/09 09:33:02;;;;;;;8.23;6.30;;;34.50;75.50;;;;;;7379104;19;20021;-61
2023/07/09 09:35:30;;;;;;;8.75;6.75;;;35.00;76.10;;;;;;7377414;19;20124;-62
2023/07/09 09:37:58;;;;;;;10.07;6.40;;;35.20;74.70;;;;;;7374085;19;20030;-61
2023/07/09 09:40:26;;;;;;;8.57;5.72;;;35.50;72.60;;;;;;7380669;19;20022;-63
2023/07/09 09:42:55;;;;;;;9.27;6.55;;;35.80;74.20;;;;;;7371328;19;20470;-64
2023/07/09 09:45:28;;;;;;;11.27;8.63;;;35.60;70.30;;;;;;7378224;19;20026;-63
2023/07/09 09:48:00;;;;;;;10.73;6.43;;;35.80;68.40;;;;;;7381240;19;20019;-62
2023/07/09 09:50:33;;;;;;;8.57;6.07;;;35.90;68.30;;;;;;7375411;19;20042;-62
2023/07/09 09:53:01;;;;;;;9.35;6.20;;;35.70;69.30;;;;;;7376413;19;20041;-62
2023/07/09 09:55:33;;;;;;;10.27;6.60;;;35.70;68.30;;;;;;7377117;19;20477;-62
2023/07/09 09:58:02;;;;;;;7.65;5.47;;;36.20;67.80;;;;;;7375067;19;20025;-62
2023/07/09 10:00:33;;;;;;;10.13;6.13;;;36.20;68.00;;;;;;7372257;19;20021;-62
2023/07/09 10:03:01;;;;;;;7.32;5.45;;;36.10;65.10;;;;;;7379238;19;20810;-63
2023/07/09 10:05:51;;;;;;;8.05;5.65;;;36.40;65.90;;;;;;7374488;19;20018;-62
2023/07/09 10:08:33;;;;;;;8.75;6.25;;;36.40;63.20;;;;;;7376364;19;20488;-63
2023/07/09 10:11:14;;;;;;;8.43;5.95;;;36.50;63.20;;;;;;7378152;19;20018;-62
2023/07/09 10:13:44;;;;;;;9.13;6.22;;;36.50;63.40;;;;;;7369440;19;20022;-63
2023/07/09 10:16:35;;;;;;;9.27;5.53;;;36.80;61.70;;;;;;7375423;19;20022;-62
2023/07/09 10:19:30;;;;;;;9.85;6.25;;;36.50;60.00;;;;;;7374753;19;20018;-62
2023/07/09 10:22:00;;;;;;;9.10;5.57;;;36.60;61.30;;;;;;7376097;19;20626;-64
2023/07/09 10:25:02;;;;;;;9.70;5.25;;;36.90;60.40;;;;;;7378094;19;20096;-62
2023/07/09 10:28:17;;;;;;;11.27;5.57;;;36.90;60.50;;;;;;7381107;19;20019;-65
2023/07/09 10:31:18;;;;;;;9.10;5.93;;;36.80;59.70;;;;;;7371722;19;20110;-66
2023/07/09 10:34:01;;;;;;;10.63;5.78;;;36.70;58.90;;;;;;7368268;19;20058;-66
2023/07/09 10:36:49;;;;;;;11.40;5.57;;;37.00;59.50;;;;;;7368022;19;20051;-62
2023/07/09 10:39:29;;;;;;;8.70;5.43;;;37.10;57.10;;;;;;7377247;19;20106;-62
2023/07/09 10:42:00;;;;;;;10.32;5.85;;;37.00;57.70;;;;;;7374609;19;20023;-67
2023/07/09 10:44:33;;;;;;;7.55;5.45;;;37.10;57.10;;;;;;7371203;19;20467;-67
2023/07/09 10:47:24;;;;;;;8.05;5.60;;;37.30;56.80;;;;;;7372255;19;20014;-67
2023/07/09 10:49:52;;;;;;;8.27;5.28;;;36.90;58.20;;;;;;7365182;19;20018;-67
2023/07/09 10:52:27;;;;;;;9.00;5.90;;;37.40;57.90;;;;;;7372769;19;20011;-62
2023/07/09 10:55:03;;;;;;;5.95;5.10;;;37.30;57.60;;;;;;7372046;19;20593;-62
2023/07/09 10:58:18;;;;;;;7.95;5.00;;;37.50;57.80;;;;;;7376524;19;20010;-62
2023/07/09 11:00:45;;;;;;;8.50;6.13;;;37.40;59.40;;;;;;7371050;19;20094;-63
2023/07/09 11:03:27;;;;;;;8.88;7.97;;;37.50;56.90;;;;;;7370342;19;20018;-63
2023/07/09 11:05:54;;;;;;;7.88;5.57;;;37.60;55.40;;;;;;7371773;19;20464;-63
2023/07/09 11:08:37;;;;;;;8.30;5.78;;;37.60;56.00;;;;;;7373792;19;20419;-62
2023/07/09 11:11:10;;;;;;;8.63;4.97;;;37.70;54.60;;;;;;7379576;19;20082;-63
2023/07/09 11:13:45;;;;;;;11.07;5.57;;;37.30;56.00;;;;;;7374424;19;20030;-62
2023/07/09 11:16:17;;;;;;;10.80;9.05;;;37.60;56.90;;;;;;7377933;19;20086;-64
2023/07/09 11:18:58;;;;;;;7.78;5.32;;;38.00;55.70;;;;;;7374248;19;20608;-62
2023/07/09 11:21:25;;;;;;;6.75;4.60;;;37.70;53.30;;;;;;7376734;19;20018;-62
2023/07/09 11:23:54;;;;;;;8.43;7.45;;;37.90;53.20;;;;;;7371181;19;20456;-61
2023/07/09 11:26:24;;;;;;;8.82;4.55;;;37.70;52.70;;;;;;7372557;19;20026;-61
2023/07/09 11:29:13;;;;;;;9.60;4.50;;;37.80;53.30;;;;;;7375409;19;20018;-62
2023/07/09 11:31:44;;;;;;;6.93;6.22;;;37.90;54.30;;;;;;7371466;19;20034;-62
2023/07/09 11:34:17;;;;;;;9.68;4.50;;;37.90;54.20;;;;;;7369827;19;20721;-61
2023/07/09 11:36:59;;;;;;;7.75;4.60;;;38.00;52.00;;;;;;7374367;19;20018;-62
2023/07/09 11:39:41;;;;;;;7.95;5.43;;;38.10;52.40;;;;;;7369098;19;20019;-62
2023/07/09 11:42:27;;;;;;;6.43;4.22;;;38.30;53.10;;;;;;7368057;19;20070;-62
2023/07/09 11:45:15;;;;;;;5.72;4.47;;;38.40;54.90;;;;;;7370155;19;20495;-62
2023/07/09 11:48:19;;;;;;;7.80;4.50;;;38.40;50.90;;;;;;7372848;19;20074;-63
2023/07/09 11:50:50;;;;;;;6.60;4.32;;;38.40;50.40;;;;;;7372520;19;20649;-62
2023/07/09 11:53:37;;;;;;;7.75;4.45;;;38.10;50.50;;;;;;7377554;19;20456;-67
2023/07/09 11:56:07;;;;;;;8.45;5.10;;;37.80;53.00;;;;;;7379757;19;20098;-62
2023/07/09 11:58:33;;;;;;;8.88;4.75;;;38.30;52.00;;;;;;7383499;19;20462;-62
2023/07/09 12:01:01;;;;;;;7.15;4.53;;;38.50;51.70;;;;;;7380480;19;20528;-62
2023/07/09 12:03:34;;;;;;;6.40;4.47;;;38.60;50.70;;;;;;7380567;19;20033;-62
2023/07/09 12:06:16;;;;;;;8.05;5.07;;;38.80;50.40;;;;;;7381297;19;20026;-64
2023/07/09 12:08:45;;;;;;;7.03;5.00;;;38.50;50.90;;;;;;7383833;19;20046;-63
2023/07/09 12:11:32;;;;;;;7.57;5.03;;;38.80;50.00;;;;;;7383339;19;20025;-70
2023/07/09 12:14:20;;;;;;;9.43;4.97;;;39.00;47.90;;;;;;7372483;19;20571;-69
2023/07/09 12:16:52;;;;;;;7.32;4.55;;;39.10;48.10;;;;;;7383344;19;20026;-58
2023/07/09 12:19:21;;;;;;;8.45;4.68;;;39.20;48.50;;;;;;7383734;19;20014;-66
2023/07/09 12:21:58;;;;;;;9.00;5.00;;;39.30;48.60;;;;;;7376691;19;20373;-65
2023/07/09 12:24:30;;;;;;;5.50;4.88;;;39.30;49.40;;;;;;7378273;19;20025;-65
2023/07/09 12:27:00;;;;;;;9.70;6.03;;;39.20;50.00;;;;;;7379324;19;20472;-64
2023/07/09 12:29:27;;;;;;;9.23;5.53;;;39.30;50.30;;;;;;7383599;19;20048;-68
2023/07/09 12:31:57;;;;;;;9.05;5.78;;;39.20;49.70;;;;;;7380262;19;20026;-70
2023/07/09 12:34:25;;;;;;;6.72;4.80;;;38.90;48.10;;;;;;7382830;19;20383;-62
2023/07/09 12:36:53;;;;;;;8.48;5.10;;;38.90;49.30;;;;;;7374063;19;20022;-61
2023/07/09 12:39:26;;;;;;;11.23;5.05;;;39.10;48.60;;;;;;7380586;19;20540;-65
2023/07/09 12:41:56;;;;;;;7.22;4.82;;;39.10;48.60;;;;;;7378944;19;20018;-61
2023/07/09 12:44:23;;;;;;;;;;;39.30;49.20;;;;;;7375911;19;20378;-65
2023/07/09 12:46:52;;;;;;;6.75;5.30;;;38.80;46.50;;;;;;7375016;19;20444;-61
2023/07/09 12:49:36;;;;;;;11.30;5.10;;;39.10;48.00;;;;;;7383488;19;20014;-62
2023/07/09 12:52:11;;;;;;;7.40;4.68;;;39.20;48.30;;;;;;7379468;19;20018;-67
2023/07/09 12:54:37;;;;;;;8.98;4.50;;;39.10;47.60;;;;;;7372181;19;20437;-67